UAE321 KLAX-KDEN
Flight info
| Callsign | UAE321 |
|---|---|
| Flight time | 1h 40m |
| Altitude | 35000 |
| Route | ORCKA5 LAS J146 DICEE DCT BUMMP SSKII4 |
| Aircraft | B77F/H-SDE2E3FGHIJ1RWXY/L |
Departure
| Time | 2026-04-24 00:03 |
|---|---|
| Airport | Los Angeles International Airport (KLAX) |
Arrival
| Time | 2026-04-24 01:44 |
|---|---|
| Airport | Denver International Airport (KDEN) |
| Time | Latitude | Longitude | Altitude | Speed | Heading |
|---|---|---|---|---|---|
| 2026-04-23 23:50 | 33.94261 | -118.41121 | 126 ft | 0 kts | 83° |
| 2026-04-23 23:53 | 33.94261 | -118.41122 | 130 ft | 0 kts | 83° |
| 2026-04-23 23:54 | 33.94259 | -118.41141 | 125 ft | 2 kts | 77° |
| 2026-04-23 23:54 | 33.94255 | -118.41160 | 125 ft | 2 kts | 71° |
| 2026-04-23 23:54 | 33.94249 | -118.41179 | 125 ft | 2 kts | 61° |
| 2026-04-23 23:55 | 33.94240 | -118.41195 | 125 ft | 2 kts | 46° |
| 2026-04-23 23:55 | 33.94227 | -118.41208 | 125 ft | 2 kts | 26° |
| 2026-04-23 23:55 | 33.94212 | -118.41214 | 125 ft | 2 kts | 6° |
| 2026-04-23 23:55 | 33.94198 | -118.41215 | 125 ft | 1 kts | 356° |
| 2026-04-23 23:56 | 33.94194 | -118.41214 | 125 ft | 0 kts | 354° |
| 2026-04-23 23:57 | 33.94200 | -118.41215 | 128 ft | 1 kts | 358° |
| 2026-04-23 23:57 | 33.94212 | -118.41215 | 125 ft | 2 kts | 358° |
| 2026-04-23 23:58 | 33.94229 | -118.41216 | 127 ft | 3 kts | 358° |
| 2026-04-23 23:58 | 33.94251 | -118.41217 | 125 ft | 4 kts | 358° |
| 2026-04-23 23:58 | 33.94278 | -118.41219 | 126 ft | 4 kts | 358° |
| 2026-04-23 23:58 | 33.94311 | -118.41222 | 127 ft | 5 kts | 354° |
| 2026-04-23 23:59 | 33.94347 | -118.41227 | 127 ft | 6 kts | 354° |
| 2026-04-23 23:59 | 33.94387 | -118.41233 | 128 ft | 6 kts | 352° |
| 2026-04-23 23:59 | 33.94432 | -118.41241 | 127 ft | 7 kts | 351° |
| 2026-04-23 23:59 | 33.94480 | -118.41251 | 127 ft | 7 kts | 351° |
| 2026-04-24 00:00 | 33.94541 | -118.41263 | 127 ft | 14 kts | 350° |
| 2026-04-24 00:00 | 33.94641 | -118.41280 | 127 ft | 20 kts | 352° |
| 2026-04-24 00:00 | 33.94765 | -118.41284 | 126 ft | 9 kts | 30° |
| 2026-04-24 00:00 | 33.94806 | -118.41193 | 126 ft | 11 kts | 81° |
| 2026-04-24 00:01 | 33.94821 | -118.41048 | 129 ft | 24 kts | 83° |
| 2026-04-24 00:01 | 33.94840 | -118.40815 | 135 ft | 31 kts | 87° |
| 2026-04-24 00:01 | 33.94859 | -118.40614 | 130 ft | 25 kts | 79° |
| 2026-04-24 00:01 | 33.94893 | -118.40360 | 126 ft | 33 kts | 82° |
| 2026-04-24 00:02 | 33.94915 | -118.40201 | 127 ft | 10 kts | 53° |
| 2026-04-24 00:02 | 33.94986 | -118.40192 | 127 ft | 8 kts | 318° |
| 2026-04-24 00:02 | 33.95007 | -118.40256 | 127 ft | 0 kts | 263° |
| 2026-04-24 00:02 | 33.94986 | -118.40460 | 128 ft | 72 kts | 263° |
| 2026-04-24 00:03 | 33.94872 | -118.41521 | 127 ft | 180 kts | 263° |
| 2026-04-24 00:03 | 33.94697 | -118.43205 | 866 ft | 195 kts | 262° |
| 2026-04-24 00:03 | 33.94558 | -118.44610 | 3056 ft | 168 kts | 261° |
| 2026-04-24 00:03 | 33.94355 | -118.46181 | 3908 ft | 210 kts | 260° |
| 2026-04-24 00:04 | 33.94076 | -118.48009 | 4583 ft | 237 kts | 261° |
| 2026-04-24 00:04 | 33.93839 | -118.50049 | 5415 ft | 269 kts | 264° |
| 2026-04-24 00:04 | 33.93642 | -118.52351 | 6499 ft | 271 kts | 267° |
| 2026-04-24 00:04 | 33.93515 | -118.54516 | 7955 ft | 250 kts | 267° |
| 2026-04-24 00:05 | 33.93397 | -118.56573 | 9203 ft | 241 kts | 267° |
| 2026-04-24 00:05 | 33.93282 | -118.58577 | 10197 ft | 243 kts | 267° |
| 2026-04-24 00:05 | 33.93135 | -118.60643 | 10925 ft | 252 kts | 265° |
| 2026-04-24 00:05 | 33.92957 | -118.62745 | 11800 ft | 252 kts | 265° |
| 2026-04-24 00:06 | 33.92422 | -118.64744 | 12593 ft | 259 kts | 237° |
| 2026-04-24 00:06 | 33.90970 | -118.66084 | 13425 ft | 275 kts | 204° |
| 2026-04-24 00:06 | 33.89018 | -118.66257 | 14201 ft | 295 kts | 172° |
| 2026-04-24 00:06 | 33.87115 | -118.65192 | 14936 ft | 312 kts | 146° |
| 2026-04-24 00:07 | 33.85649 | -118.63222 | 15666 ft | 325 kts | 121° |
| 2026-04-24 00:07 | 33.84980 | -118.60614 | 16348 ft | 333 kts | 91° |
| 2026-04-24 00:07 | 33.85386 | -118.57887 | 17012 ft | 333 kts | 60° |
| 2026-04-24 00:07 | 33.86626 | -118.55523 | 17472 ft | 343 kts | 48° |
| 2026-04-24 00:08 | 33.88139 | -118.53177 | 17775 ft | 364 kts | 48° |
| 2026-04-24 00:08 | 33.89636 | -118.50640 | 18353 ft | 378 kts | 53° |
| 2026-04-24 00:08 | 33.91038 | -118.47920 | 19010 ft | 385 kts | 56° |
| 2026-04-24 00:08 | 33.92380 | -118.45134 | 19946 ft | 381 kts | 57° |
| 2026-04-24 00:09 | 33.93712 | -118.42403 | 20887 ft | 379 kts | 53° |
| 2026-04-24 00:09 | 33.95198 | -118.39746 | 21490 ft | 388 kts | 51° |
| 2026-04-24 00:09 | 33.96802 | -118.37022 | 21647 ft | 410 kts | 51° |
| 2026-04-24 00:09 | 33.98487 | -118.34131 | 21829 ft | 432 kts | 52° |
| 2026-04-24 00:10 | 34.00202 | -118.31131 | 22008 ft | 452 kts | 52° |
| 2026-04-24 00:10 | 34.02020 | -118.27914 | 22446 ft | 464 kts | 52° |
| 2026-04-24 00:10 | 34.03833 | -118.24707 | 23030 ft | 472 kts | 52° |
| 2026-04-24 00:10 | 34.05685 | -118.21431 | 23742 ft | 476 kts | 53° |
| 2026-04-24 00:11 | 34.07558 | -118.18118 | 24346 ft | 479 kts | 53° |
| 2026-04-24 00:11 | 34.09445 | -118.14781 | 24949 ft | 484 kts | 53° |
| 2026-04-24 00:11 | 34.11352 | -118.11407 | 25511 ft | 489 kts | 53° |
| 2026-04-24 00:11 | 34.13277 | -118.07998 | 26038 ft | 494 kts | 53° |
| 2026-04-24 00:12 | 34.15225 | -118.04545 | 26595 ft | 499 kts | 53° |
| 2026-04-24 00:12 | 34.17186 | -118.01064 | 27133 ft | 504 kts | 53° |
| 2026-04-24 00:12 | 34.19164 | -117.97550 | 27676 ft | 509 kts | 53° |
| 2026-04-24 00:12 | 34.21163 | -117.93995 | 28211 ft | 513 kts | 53° |
| 2026-04-24 00:13 | 34.23173 | -117.90415 | 28741 ft | 517 kts | 53° |
| 2026-04-24 00:13 | 34.25203 | -117.86796 | 29211 ft | 523 kts | 53° |
| 2026-04-24 00:13 | 34.27251 | -117.83139 | 29708 ft | 527 kts | 53° |
| 2026-04-24 00:13 | 34.29316 | -117.79448 | 30190 ft | 531 kts | 53° |
| 2026-04-24 00:14 | 34.31388 | -117.75740 | 30581 ft | 534 kts | 53° |
| 2026-04-24 00:14 | 34.33480 | -117.71995 | 30886 ft | 539 kts | 53° |
| 2026-04-24 00:14 | 34.35561 | -117.68266 | 31190 ft | 543 kts | 53° |
| 2026-04-24 00:14 | 34.37704 | -117.64425 | 31551 ft | 546 kts | 53° |
| 2026-04-24 00:15 | 34.39803 | -117.60662 | 31973 ft | 546 kts | 53° |
| 2026-04-24 00:15 | 34.41923 | -117.56861 | 32449 ft | 545 kts | 53° |
| 2026-04-24 00:15 | 34.44047 | -117.53051 | 32883 ft | 545 kts | 53° |
| 2026-04-24 00:15 | 34.46171 | -117.49243 | 33415 ft | 545 kts | 53° |
| 2026-04-24 00:16 | 34.48288 | -117.45446 | 33854 ft | 545 kts | 53° |
| 2026-04-24 00:16 | 34.50421 | -117.41618 | 34218 ft | 546 kts | 53° |
| 2026-04-24 00:16 | 34.52545 | -117.37808 | 34576 ft | 546 kts | 53° |
| 2026-04-24 00:16 | 34.54670 | -117.33994 | 34956 ft | 545 kts | 53° |
| 2026-04-24 00:17 | 34.58230 | -117.27607 | 35030 ft | 551 kts | 53° |
| 2026-04-24 00:17 | 34.62495 | -117.19952 | 35010 ft | 544 kts | 53° |
| 2026-04-24 00:18 | 34.66718 | -117.12361 | 34956 ft | 542 kts | 52° |
| 2026-04-24 00:18 | 34.70942 | -117.04763 | 34959 ft | 542 kts | 52° |
| 2026-04-24 00:19 | 34.75081 | -116.97314 | 34973 ft | 542 kts | 52° |
| 2026-04-24 00:19 | 34.79305 | -116.89710 | 34978 ft | 543 kts | 52° |
| 2026-04-24 00:20 | 34.83533 | -116.82098 | 34978 ft | 543 kts | 52° |
| 2026-04-24 00:20 | 34.87765 | -116.74474 | 34988 ft | 543 kts | 52° |
| 2026-04-24 00:21 | 34.91998 | -116.66843 | 34977 ft | 543 kts | 52° |
| 2026-04-24 00:21 | 34.96201 | -116.59266 | 34969 ft | 543 kts | 52° |
| 2026-04-24 00:22 | 35.00425 | -116.51643 | 34962 ft | 543 kts | 52° |
| 2026-04-24 00:22 | 35.04657 | -116.44002 | 34958 ft | 543 kts | 52° |
| 2026-04-24 00:23 | 35.08885 | -116.36365 | 34958 ft | 543 kts | 52° |
| 2026-04-24 00:23 | 35.13123 | -116.28710 | 34961 ft | 544 kts | 52° |
| 2026-04-24 00:24 | 35.17356 | -116.21059 | 34968 ft | 544 kts | 52° |
| 2026-04-24 00:24 | 35.21596 | -116.13394 | 34978 ft | 544 kts | 52° |
| 2026-04-24 00:25 | 35.25831 | -116.05734 | 34992 ft | 544 kts | 52° |
| 2026-04-24 00:25 | 35.30001 | -115.98194 | 34991 ft | 545 kts | 52° |
| 2026-04-24 00:26 | 35.34251 | -115.90504 | 34998 ft | 546 kts | 52° |
| 2026-04-24 00:26 | 35.38509 | -115.82793 | 35003 ft | 546 kts | 52° |
| 2026-04-24 00:27 | 35.42765 | -115.75084 | 34998 ft | 546 kts | 52° |
| 2026-04-24 00:27 | 35.47021 | -115.67370 | 35009 ft | 545 kts | 52° |
| 2026-04-24 00:28 | 35.51269 | -115.59664 | 35021 ft | 546 kts | 52° |
| 2026-04-24 00:28 | 35.55496 | -115.51993 | 35002 ft | 545 kts | 52° |
| 2026-04-24 00:29 | 35.59749 | -115.44272 | 35012 ft | 545 kts | 52° |
| 2026-04-24 00:29 | 35.63995 | -115.36559 | 35006 ft | 545 kts | 52° |
| 2026-04-24 00:30 | 35.68244 | -115.28835 | 35015 ft | 546 kts | 52° |
| 2026-04-24 00:30 | 35.72498 | -115.21094 | 34997 ft | 546 kts | 52° |
| 2026-04-24 00:31 | 35.76760 | -115.13339 | 34994 ft | 546 kts | 52° |
| 2026-04-24 00:31 | 35.81017 | -115.05586 | 34986 ft | 546 kts | 51° |
| 2026-04-24 00:32 | 35.85195 | -114.97975 | 34955 ft | 546 kts | 51° |
| 2026-04-24 00:32 | 35.89448 | -114.90224 | 34952 ft | 546 kts | 51° |
| 2026-04-24 00:33 | 35.93700 | -114.82467 | 34952 ft | 546 kts | 51° |
| 2026-04-24 00:33 | 35.97959 | -114.74694 | 34947 ft | 546 kts | 51° |
| 2026-04-24 00:34 | 36.02184 | -114.66979 | 34949 ft | 547 kts | 51° |
| 2026-04-24 00:34 | 36.06473 | -114.59133 | 34903 ft | 547 kts | 51° |
| 2026-04-24 00:35 | 36.10708 | -114.51379 | 34866 ft | 547 kts | 51° |
| 2026-04-24 00:35 | 36.14969 | -114.43584 | 34868 ft | 547 kts | 51° |
| 2026-04-24 00:36 | 36.19232 | -114.35778 | 34895 ft | 548 kts | 51° |
| 2026-04-24 00:36 | 36.23503 | -114.27956 | 34871 ft | 549 kts | 51° |
| 2026-04-24 00:37 | 36.27781 | -114.20117 | 34879 ft | 549 kts | 51° |
| 2026-04-24 00:37 | 36.32058 | -114.12276 | 34884 ft | 548 kts | 51° |
| 2026-04-24 00:38 | 36.36327 | -114.04442 | 34892 ft | 548 kts | 51° |
| 2026-04-24 00:38 | 36.40524 | -113.96739 | 34924 ft | 549 kts | 51° |
| 2026-04-24 00:39 | 36.44809 | -113.88875 | 34907 ft | 549 kts | 51° |
| 2026-04-24 00:39 | 36.49090 | -113.81017 | 34909 ft | 550 kts | 51° |
| 2026-04-24 00:40 | 36.53374 | -113.73147 | 34921 ft | 550 kts | 51° |
| 2026-04-24 00:40 | 36.57669 | -113.65252 | 34916 ft | 551 kts | 51° |
| 2026-04-24 00:41 | 36.61962 | -113.57360 | 34917 ft | 551 kts | 51° |
| 2026-04-24 00:41 | 36.66251 | -113.49469 | 34920 ft | 550 kts | 51° |
| 2026-04-24 00:42 | 36.70517 | -113.41615 | 34929 ft | 550 kts | 51° |
| 2026-04-24 00:42 | 36.74804 | -113.33717 | 34934 ft | 550 kts | 51° |
| 2026-04-24 00:43 | 36.79099 | -113.25802 | 34969 ft | 552 kts | 50° |
| 2026-04-24 00:43 | 36.83406 | -113.17863 | 35009 ft | 552 kts | 50° |
| 2026-04-24 00:44 | 36.87707 | -113.09930 | 35048 ft | 552 kts | 50° |
| 2026-04-24 00:44 | 36.92016 | -113.01980 | 35049 ft | 552 kts | 50° |
| 2026-04-24 00:45 | 36.96223 | -112.94141 | 35053 ft | 555 kts | 54° |
| 2026-04-24 00:45 | 36.99224 | -112.85191 | 35012 ft | 567 kts | 79° |
| 2026-04-24 00:46 | 36.99351 | -112.80269 | 35019 ft | 567 kts | 99° |
| 2026-04-24 00:46 | 36.98361 | -112.75542 | 35002 ft | 560 kts | 118° |
| 2026-04-24 00:46 | 36.94557 | -112.67138 | 34959 ft | 556 kts | 123° |
| 2026-04-24 00:47 | 36.91616 | -112.58124 | 34923 ft | 565 kts | 109° |
| 2026-04-24 00:47 | 36.89568 | -112.48640 | 34907 ft | 565 kts | 103° |
| 2026-04-24 00:48 | 36.89160 | -112.43752 | 34940 ft | 567 kts | 89° |
| 2026-04-24 00:48 | 36.89644 | -112.38889 | 34920 ft | 564 kts | 72° |
| 2026-04-24 00:48 | 36.92382 | -112.29852 | 34922 ft | 560 kts | 65° |
| 2026-04-24 00:49 | 36.95061 | -112.20678 | 34934 ft | 564 kts | 68° |
| 2026-04-24 00:49 | 36.97584 | -112.11372 | 34915 ft | 566 kts | 68° |
| 2026-04-24 00:50 | 37.00125 | -112.02053 | 34887 ft | 567 kts | 68° |
| 2026-04-24 00:50 | 37.02658 | -111.92886 | 34864 ft | 567 kts | 68° |
| 2026-04-24 00:51 | 37.05236 | -111.83575 | 34907 ft | 565 kts | 68° |
| 2026-04-24 00:51 | 37.07803 | -111.74257 | 34842 ft | 566 kts | 68° |
| 2026-04-24 00:52 | 37.10356 | -111.64940 | 34840 ft | 566 kts | 68° |
| 2026-04-24 00:52 | 37.12887 | -111.55675 | 34892 ft | 565 kts | 68° |
| 2026-04-24 00:53 | 37.15427 | -111.46337 | 34900 ft | 565 kts | 68° |
| 2026-04-24 00:53 | 37.17959 | -111.37004 | 34870 ft | 566 kts | 68° |
| 2026-04-24 00:54 | 37.20488 | -111.27645 | 34846 ft | 566 kts | 68° |
| 2026-04-24 00:54 | 37.23216 | -111.18409 | 34838 ft | 561 kts | 60° |
| 2026-04-24 00:55 | 37.26753 | -111.09695 | 34851 ft | 561 kts | 57° |
| 2026-04-24 00:55 | 37.30380 | -111.01019 | 34856 ft | 561 kts | 58° |
| 2026-04-24 00:56 | 37.33852 | -110.92436 | 34856 ft | 562 kts | 59° |
| 2026-04-24 00:56 | 37.37313 | -110.83675 | 34860 ft | 563 kts | 59° |
| 2026-04-24 00:57 | 37.40785 | -110.74831 | 34863 ft | 564 kts | 59° |
| 2026-04-24 00:58 | 37.45999 | -110.61547 | 34863 ft | 564 kts | 59° |
| 2026-04-24 00:58 | 37.49471 | -110.52685 | 34877 ft | 565 kts | 59° |
| 2026-04-24 00:59 | 37.52942 | -110.43800 | 34890 ft | 565 kts | 59° |
| 2026-04-24 00:59 | 37.56408 | -110.34900 | 34907 ft | 567 kts | 59° |
| 2026-04-24 01:00 | 37.59878 | -110.25964 | 34883 ft | 567 kts | 59° |
| 2026-04-24 01:00 | 37.63340 | -110.17021 | 34897 ft | 567 kts | 59° |
| 2026-04-24 01:01 | 37.66794 | -110.08074 | 34904 ft | 566 kts | 59° |
| 2026-04-24 01:01 | 37.70170 | -109.99308 | 34913 ft | 567 kts | 59° |
| 2026-04-24 01:02 | 37.73607 | -109.90351 | 34926 ft | 566 kts | 59° |
| 2026-04-24 01:02 | 37.77016 | -109.81443 | 34927 ft | 566 kts | 59° |
| 2026-04-24 01:03 | 37.80442 | -109.72471 | 34927 ft | 567 kts | 59° |
| 2026-04-24 01:03 | 37.83859 | -109.63491 | 34955 ft | 567 kts | 59° |
| 2026-04-24 01:04 | 37.87276 | -109.54484 | 34958 ft | 567 kts | 59° |
| 2026-04-24 01:04 | 37.90685 | -109.45479 | 34955 ft | 568 kts | 59° |
| 2026-04-24 01:05 | 37.93534 | -109.37923 | 34937 ft | 568 kts | 60° |
| 2026-04-24 01:05 | 37.96911 | -109.28944 | 34972 ft | 567 kts | 60° |
| 2026-04-24 01:06 | 38.00297 | -109.19917 | 34934 ft | 566 kts | 60° |
| 2026-04-24 01:06 | 38.03666 | -109.10909 | 34946 ft | 565 kts | 60° |
| 2026-04-24 01:07 | 38.07019 | -109.01918 | 34931 ft | 564 kts | 60° |
| 2026-04-24 01:07 | 38.10305 | -108.93088 | 34919 ft | 563 kts | 60° |
| 2026-04-24 01:08 | 38.13758 | -108.84191 | 34920 ft | 561 kts | 58° |
| 2026-04-24 01:08 | 38.17289 | -108.75344 | 34938 ft | 562 kts | 58° |
| 2026-04-24 01:09 | 38.20813 | -108.66459 | 34921 ft | 563 kts | 58° |
| 2026-04-24 01:09 | 38.24309 | -108.57547 | 34919 ft | 564 kts | 59° |
| 2026-04-24 01:10 | 38.27799 | -108.48598 | 34922 ft | 564 kts | 59° |
| 2026-04-24 01:10 | 38.31282 | -108.39642 | 34920 ft | 565 kts | 59° |
| 2026-04-24 01:11 | 38.34767 | -108.30660 | 34923 ft | 565 kts | 59° |
| 2026-04-24 01:11 | 38.38245 | -108.21671 | 34933 ft | 565 kts | 59° |
| 2026-04-24 01:12 | 38.41683 | -108.12758 | 34948 ft | 562 kts | 59° |
| 2026-04-24 01:12 | 38.45119 | -108.03832 | 34990 ft | 560 kts | 59° |
| 2026-04-24 01:13 | 38.48471 | -107.95091 | 35002 ft | 558 kts | 59° |
| 2026-04-24 01:13 | 38.51880 | -107.86181 | 35010 ft | 558 kts | 59° |
| 2026-04-24 01:14 | 38.55287 | -107.77251 | 34895 ft | 559 kts | 59° |
| 2026-04-24 01:14 | 38.58689 | -107.68306 | 34889 ft | 560 kts | 59° |
| 2026-04-24 01:15 | 38.62094 | -107.59326 | 34885 ft | 561 kts | 60° |
| 2026-04-24 01:15 | 38.65489 | -107.50346 | 34901 ft | 561 kts | 60° |
| 2026-04-24 01:16 | 38.68880 | -107.41347 | 34885 ft | 562 kts | 60° |
| 2026-04-24 01:16 | 38.72269 | -107.32327 | 34897 ft | 561 kts | 60° |
| 2026-04-24 01:17 | 38.75610 | -107.23315 | 34881 ft | 557 kts | 60° |
| 2026-04-24 01:17 | 38.78944 | -107.14389 | 34882 ft | 552 kts | 60° |
| 2026-04-24 01:18 | 38.82267 | -107.05548 | 34896 ft | 549 kts | 60° |
| 2026-04-24 01:18 | 38.85500 | -106.96870 | 34885 ft | 548 kts | 60° |
| 2026-04-24 01:19 | 38.88738 | -106.88124 | 34889 ft | 548 kts | 60° |
| 2026-04-24 01:19 | 38.92003 | -106.79272 | 34907 ft | 549 kts | 61° |
| 2026-04-24 01:20 | 38.95273 | -106.70387 | 34915 ft | 550 kts | 60° |
| 2026-04-24 01:20 | 38.98534 | -106.61502 | 34926 ft | 550 kts | 61° |
| 2026-04-24 01:21 | 39.01787 | -106.52611 | 34959 ft | 551 kts | 61° |
| 2026-04-24 01:21 | 39.05040 | -106.43691 | 35014 ft | 551 kts | 61° |
| 2026-04-24 01:22 | 39.08292 | -106.34757 | 34897 ft | 551 kts | 61° |
| 2026-04-24 01:22 | 39.11503 | -106.25930 | 34760 ft | 534 kts | 62° |
| 2026-04-24 01:22 | 39.13036 | -106.21612 | 34210 ft | 530 kts | 62° |
| 2026-04-24 01:23 | 39.14590 | -106.17299 | 33262 ft | 532 kts | 62° |
| 2026-04-24 01:23 | 39.16143 | -106.12998 | 32261 ft | 525 kts | 62° |
| 2026-04-24 01:23 | 39.17661 | -106.08753 | 30952 ft | 518 kts | 62° |
| 2026-04-24 01:23 | 39.19171 | -106.04585 | 29751 ft | 508 kts | 62° |
| 2026-04-24 01:24 | 39.20639 | -106.00498 | 28460 ft | 497 kts | 62° |
| 2026-04-24 01:24 | 39.22011 | -105.96686 | 27336 ft | 486 kts | 62° |
| 2026-04-24 01:24 | 39.23425 | -105.92782 | 26201 ft | 474 kts | 62° |
| 2026-04-24 01:24 | 39.24798 | -105.88963 | 25069 ft | 466 kts | 63° |
| 2026-04-24 01:25 | 39.26145 | -105.85192 | 23956 ft | 459 kts | 63° |
| 2026-04-24 01:25 | 39.27466 | -105.81479 | 22787 ft | 452 kts | 63° |
| 2026-04-24 01:25 | 39.28767 | -105.77820 | 21578 ft | 446 kts | 63° |
| 2026-04-24 01:25 | 39.30049 | -105.74215 | 20581 ft | 441 kts | 63° |
| 2026-04-24 01:26 | 39.31333 | -105.70606 | 20157 ft | 443 kts | 63° |
| 2026-04-24 01:26 | 39.32618 | -105.66993 | 19986 ft | 441 kts | 63° |
| 2026-04-24 01:26 | 39.33909 | -105.63420 | 19862 ft | 437 kts | 62° |
| 2026-04-24 01:26 | 39.35197 | -105.59899 | 19827 ft | 430 kts | 62° |
| 2026-04-24 01:27 | 39.36473 | -105.56420 | 19816 ft | 427 kts | 62° |
| 2026-04-24 01:27 | 39.37748 | -105.52940 | 19829 ft | 430 kts | 62° |
| 2026-04-24 01:27 | 39.39024 | -105.49446 | 19815 ft | 431 kts | 63° |
| 2026-04-24 01:27 | 39.40296 | -105.45947 | 19704 ft | 428 kts | 63° |
| 2026-04-24 01:28 | 39.41561 | -105.42470 | 19267 ft | 425 kts | 62° |
| 2026-04-24 01:28 | 39.43013 | -105.39190 | 18675 ft | 420 kts | 54° |
| 2026-04-24 01:28 | 39.44698 | -105.36124 | 18106 ft | 416 kts | 51° |
| 2026-04-24 01:28 | 39.46430 | -105.33141 | 17555 ft | 411 kts | 50° |
| 2026-04-24 01:29 | 39.48123 | -105.30192 | 17012 ft | 407 kts | 51° |
| 2026-04-24 01:29 | 39.49775 | -105.27232 | 16392 ft | 405 kts | 52° |
| 2026-04-24 01:29 | 39.51398 | -105.24255 | 15754 ft | 404 kts | 53° |
| 2026-04-24 01:29 | 39.53007 | -105.21287 | 15220 ft | 400 kts | 53° |
| 2026-04-24 01:30 | 39.54560 | -105.18315 | 14867 ft | 395 kts | 57° |
| 2026-04-24 01:30 | 39.55845 | -105.15170 | 14823 ft | 396 kts | 63° |
| 2026-04-24 01:30 | 39.56987 | -105.11951 | 14824 ft | 400 kts | 64° |
| 2026-04-24 01:30 | 39.58139 | -105.08597 | 14798 ft | 402 kts | 64° |
| 2026-04-24 01:31 | 39.59266 | -105.05349 | 14541 ft | 398 kts | 64° |
| 2026-04-24 01:31 | 39.60419 | -105.02096 | 14056 ft | 396 kts | 63° |
| 2026-04-24 01:31 | 39.61529 | -104.99011 | 13714 ft | 390 kts | 63° |
| 2026-04-24 01:31 | 39.62681 | -104.95838 | 13222 ft | 386 kts | 63° |
| 2026-04-24 01:32 | 39.63815 | -104.92725 | 13046 ft | 380 kts | 63° |
| 2026-04-24 01:32 | 39.64932 | -104.89659 | 13017 ft | 369 kts | 62° |
| 2026-04-24 01:32 | 39.66002 | -104.86719 | 13002 ft | 352 kts | 62° |
| 2026-04-24 01:32 | 39.67020 | -104.83918 | 12987 ft | 335 kts | 62° |
| 2026-04-24 01:33 | 39.67988 | -104.81250 | 12985 ft | 319 kts | 62° |
| 2026-04-24 01:33 | 39.68907 | -104.78713 | 12986 ft | 303 kts | 62° |
| 2026-04-24 01:33 | 39.69908 | -104.76395 | 12911 ft | 290 kts | 46° |
| 2026-04-24 01:33 | 39.71322 | -104.74551 | 12711 ft | 289 kts | 40° |
| 2026-04-24 01:34 | 39.72770 | -104.72738 | 12425 ft | 288 kts | 41° |
| 2026-04-24 01:34 | 39.74182 | -104.70925 | 12165 ft | 282 kts | 41° |
| 2026-04-24 01:34 | 39.75561 | -104.69135 | 11802 ft | 280 kts | 41° |
| 2026-04-24 01:34 | 39.76932 | -104.67346 | 11434 ft | 277 kts | 43° |
| 2026-04-24 01:35 | 39.78006 | -104.65287 | 10902 ft | 282 kts | 70° |
| 2026-04-24 01:35 | 39.78255 | -104.62764 | 10455 ft | 283 kts | 88° |
| 2026-04-24 01:35 | 39.78247 | -104.60201 | 10051 ft | 283 kts | 88° |
| 2026-04-24 01:35 | 39.78251 | -104.57669 | 9734 ft | 278 kts | 88° |
| 2026-04-24 01:36 | 39.78260 | -104.55162 | 9342 ft | 276 kts | 86° |
| 2026-04-24 01:36 | 39.78327 | -104.52718 | 9142 ft | 264 kts | 85° |
| 2026-04-24 01:36 | 39.78397 | -104.50396 | 9034 ft | 250 kts | 86° |
| 2026-04-24 01:36 | 39.78453 | -104.48201 | 8961 ft | 240 kts | 85° |
| 2026-04-24 01:37 | 39.78528 | -104.46024 | 8976 ft | 243 kts | 85° |
| 2026-04-24 01:37 | 39.78608 | -104.43847 | 9020 ft | 238 kts | 85° |
| 2026-04-24 01:37 | 39.78995 | -104.41806 | 8955 ft | 231 kts | 55° |
| 2026-04-24 01:37 | 39.80035 | -104.40279 | 8967 ft | 226 kts | 39° |
| 2026-04-24 01:38 | 39.81221 | -104.38941 | 8962 ft | 222 kts | 37° |
| 2026-04-24 01:38 | 39.82375 | -104.37678 | 8981 ft | 211 kts | 36° |
| 2026-04-24 01:38 | 39.83487 | -104.36458 | 8950 ft | 207 kts | 36° |
| 2026-04-24 01:38 | 39.84648 | -104.35400 | 8919 ft | 200 kts | 14° |
| 2026-04-24 01:39 | 39.85980 | -104.35394 | 8962 ft | 192 kts | 337° |
| 2026-04-24 01:39 | 39.86969 | -104.36503 | 8974 ft | 192 kts | 298° |
| 2026-04-24 01:39 | 39.87313 | -104.38221 | 8774 ft | 201 kts | 281° |
| 2026-04-24 01:39 | 39.87483 | -104.40029 | 8529 ft | 202 kts | 277° |
| 2026-04-24 01:40 | 39.87551 | -104.41784 | 8255 ft | 190 kts | 274° |
| 2026-04-24 01:40 | 39.87573 | -104.43486 | 8017 ft | 185 kts | 273° |
| 2026-04-24 01:40 | 39.87587 | -104.45140 | 7779 ft | 179 kts | 273° |
| 2026-04-24 01:40 | 39.87601 | -104.46704 | 7549 ft | 171 kts | 273° |
| 2026-04-24 01:41 | 39.87609 | -104.48236 | 7345 ft | 169 kts | 272° |
| 2026-04-24 01:41 | 39.87622 | -104.49776 | 7127 ft | 171 kts | 273° |
| 2026-04-24 01:41 | 39.87636 | -104.51304 | 6915 ft | 167 kts | 273° |
| 2026-04-24 01:41 | 39.87646 | -104.52793 | 6705 ft | 162 kts | 273° |
| 2026-04-24 01:42 | 39.87650 | -104.54257 | 6465 ft | 162 kts | 272° |
| 2026-04-24 01:42 | 39.87651 | -104.55704 | 6342 ft | 160 kts | 273° |
| 2026-04-24 01:42 | 39.87664 | -104.57166 | 6109 ft | 161 kts | 273° |
| 2026-04-24 01:42 | 39.87684 | -104.58589 | 5850 ft | 154 kts | 274° |
| 2026-04-24 01:43 | 39.87704 | -104.59981 | 5696 ft | 151 kts | 271° |
| 2026-04-24 01:43 | 39.87703 | -104.61310 | 5479 ft | 143 kts | 273° |
| 2026-04-24 01:43 | 39.87726 | -104.62647 | 5392 ft | 148 kts | 274° |
| 2026-04-24 01:43 | 39.87739 | -104.63833 | 5374 ft | 103 kts | 270° |
| 2026-04-24 01:44 | 39.87732 | -104.64338 | 5379 ft | 27 kts | 263° |
| 2026-04-24 01:44 | 39.87684 | -104.64546 | 5381 ft | 13 kts | 248° |
| 2026-04-24 01:44 | 39.87638 | -104.64644 | 5383 ft | 13 kts | 237° |
| 2026-04-24 01:44 | 39.87597 | -104.64745 | 5386 ft | 13 kts | 257° |
| 2026-04-24 01:45 | 39.87590 | -104.64859 | 5387 ft | 13 kts | 267° |
| 2026-04-24 01:45 | 39.87584 | -104.64974 | 5388 ft | 13 kts | 267° |
| 2026-04-24 01:45 | 39.87580 | -104.65089 | 5390 ft | 13 kts | 268° |
| 2026-04-24 01:45 | 39.87581 | -104.65205 | 5390 ft | 13 kts | 271° |
| 2026-04-24 01:46 | 39.87584 | -104.65320 | 5391 ft | 13 kts | 272° |
| 2026-04-24 01:46 | 39.87588 | -104.65435 | 5385 ft | 13 kts | 271° |
| 2026-04-24 01:46 | 39.87589 | -104.65550 | 5385 ft | 13 kts | 269° |
| 2026-04-24 01:46 | 39.87574 | -104.65662 | 5387 ft | 13 kts | 233° |
| 2026-04-24 01:47 | 39.87494 | -104.65714 | 5388 ft | 13 kts | 226° |
| 2026-04-24 01:47 | 39.87471 | -104.65831 | 5390 ft | 14 kts | 268° |
| 2026-04-24 01:47 | 39.87470 | -104.65954 | 5393 ft | 14 kts | 269° |
| 2026-04-24 01:47 | 39.87472 | -104.66076 | 5390 ft | 14 kts | 274° |
| 2026-04-24 01:48 | 39.87457 | -104.66192 | 5389 ft | 14 kts | 220° |
| 2026-04-24 01:48 | 39.87356 | -104.66219 | 5390 ft | 16 kts | 182° |
| 2026-04-24 01:48 | 39.87233 | -104.66221 | 5375 ft | 19 kts | 179° |
| 2026-04-24 01:48 | 39.87094 | -104.66218 | 5377 ft | 21 kts | 179° |
| 2026-04-24 01:49 | 39.86951 | -104.66216 | 5376 ft | 21 kts | 179° |
| 2026-04-24 01:49 | 39.86808 | -104.66221 | 5383 ft | 21 kts | 182° |
| 2026-04-24 01:49 | 39.86665 | -104.66228 | 5390 ft | 21 kts | 182° |
| 2026-04-24 01:49 | 39.86523 | -104.66224 | 5391 ft | 21 kts | 177° |
| 2026-04-24 01:50 | 39.86380 | -104.66224 | 5392 ft | 21 kts | 180° |
| 2026-04-24 01:50 | 39.86239 | -104.66225 | 5393 ft | 17 kts | 180° |
| 2026-04-24 01:50 | 39.86128 | -104.66242 | 5391 ft | 15 kts | 211° |
| 2026-04-24 01:50 | 39.86105 | -104.66290 | 5396 ft | 8 kts | 245° |
| 2026-04-24 01:51 | 39.86060 | -104.66340 | 5390 ft | 10 kts | 198° |
| 2026-04-24 01:51 | 39.85988 | -104.66348 | 5391 ft | 11 kts | 181° |
| 2026-04-24 01:51 | 39.85912 | -104.66350 | 5391 ft | 11 kts | 181° |
| 2026-04-24 01:51 | 39.85828 | -104.66353 | 5392 ft | 14 kts | 181° |
| 2026-04-24 01:52 | 39.85721 | -104.66358 | 5391 ft | 14 kts | 190° |
| 2026-04-24 01:52 | 39.85675 | -104.66462 | 5385 ft | 15 kts | 251° |
| 2026-04-24 01:52 | 39.85594 | -104.66519 | 5387 ft | 5 kts | 220° |
| 2026-04-24 01:52 | 39.85574 | -104.66578 | 5386 ft | 9 kts | 234° |
| 2026-04-24 01:53 | 39.85536 | -104.66663 | 5389 ft | 13 kts | 268° |
| 2026-04-24 01:53 | 39.85541 | -104.66793 | 5388 ft | 11 kts | 273° |
| 2026-04-24 01:53 | 39.85542 | -104.66853 | 5387 ft | 9 kts | 269° |
| 2026-04-24 01:53 | 39.85541 | -104.66960 | 5387 ft | 14 kts | 269° |
| 2026-04-24 01:54 | 39.85539 | -104.67091 | 5387 ft | 13 kts | 240° |
| 2026-04-24 01:54 | 39.85504 | -104.67134 | 5387 ft | 5 kts | 216° |
| 2026-04-24 01:54 | 39.85477 | -104.67160 | 5388 ft | 5 kts | 214° |
| 2026-04-24 01:54 | 39.85457 | -104.67177 | 5389 ft | 0 kts | 213° |
| 2026-04-24 01:55 | 39.85457 | -104.67176 | 5389 ft | 0 kts | 213° |